createdAt,value
2018-12-07T16:44:36.625Z,69.30
2018-12-07T16:49:45.061Z,69.60
2018-12-07T16:54:54.117Z,76.40
2018-12-07T17:00:02.905Z,78.30
2018-12-07T17:05:12.831Z,79.10
2018-12-07T17:10:21.581Z,77.00
2018-12-07T17:15:30.264Z,76.60
2018-12-07T17:20:39.004Z,76.20
2018-12-07T17:25:47.849Z,76.30
2018-12-07T17:30:56.451Z,75.20
2018-12-07T17:36:05.123Z,74.80
2018-12-07T17:41:13.624Z,76.00
2018-12-07T17:46:22.214Z,77.30
2018-12-07T17:51:31.109Z,76.40
2018-12-07T17:56:39.912Z,75.40
2018-12-07T18:01:48.280Z,74.90
2018-12-07T18:06:56.541Z,73.50
2018-12-07T18:12:05.359Z,73.20
2018-12-07T18:17:13.780Z,79.40
2018-12-07T18:22:22.383Z,82.10
2018-12-07T18:27:31.038Z,82.90
2018-12-07T18:32:39.659Z,81.10
2018-12-07T18:37:48.617Z,79.80
2018-12-07T18:42:57.139Z,80.60
2018-12-07T18:47:59.751Z,82.60
2018-12-07T18:53:03.384Z,84.80
2018-12-07T18:58:06.037Z,86.40
2018-12-07T19:03:08.789Z,90.20
2018-12-07T19:08:11.704Z,89.20
2018-12-07T19:13:14.390Z,91.30
2018-12-07T19:18:17.131Z,94.70
2018-12-07T19:23:19.698Z,98.60
2018-12-07T19:28:23.066Z,99.90
2018-12-07T19:33:25.870Z,99.90
2018-12-07T19:38:28.502Z,99.90
2018-12-07T19:43:31.168Z,99.90
2018-12-07T19:48:33.524Z,99.90
2018-12-07T19:53:37.116Z,99.90
2018-12-07T19:58:39.785Z,85.70
2018-12-07T20:03:42.248Z,74.10
2018-12-07T20:08:44.560Z,72.20
2018-12-07T20:13:46.907Z,70.10
2018-12-07T20:18:49.184Z,68.00
2018-12-07T20:23:51.532Z,70.60
2018-12-07T20:28:53.987Z,68.80
2018-12-07T20:33:56.565Z,66.40
2018-12-07T20:38:58.867Z,67.30
2018-12-07T20:44:01.495Z,68.50
2018-12-07T20:49:04.280Z,69.80
2018-12-07T20:54:06.961Z,68.40
2018-12-07T20:59:09.417Z,70.00
2018-12-07T21:04:35.540Z,69.30
